createdAt,value
2019-05-15T00:00:55.295Z,985.19
2019-05-15T00:01:55.221Z,985.17
2019-05-15T00:02:55.132Z,985.15
2019-05-15T00:03:55.100Z,985.17
2019-05-15T00:04:54.969Z,985.16
2019-05-15T00:05:54.892Z,985.15
2019-05-15T00:06:54.804Z,985.11
2019-05-15T00:07:54.816Z,985.09
2019-05-15T00:08:54.645Z,985.11
2019-05-15T00:09:54.622Z,985.14
2019-05-15T00:10:54.491Z,985.11
2019-05-15T00:11:54.432Z,985.12
2019-05-15T00:12:54.319Z,985.12
2019-05-15T00:13:54.249Z,985.12
2019-05-15T00:14:54.157Z,985.11
2019-05-15T00:15:54.154Z,985.08
2019-05-15T00:16:53.995Z,985.09
2019-05-15T00:17:53.960Z,985.06
2019-05-15T00:18:53.832Z,985.02
2019-05-15T00:19:53.876Z,985.05
2019-05-15T00:20:53.668Z,985.02
2019-05-15T00:21:53.598Z,985.00
2019-05-15T00:22:53.509Z,984.96
2019-05-15T00:23:53.491Z,984.98
2019-05-15T00:24:53.349Z,985.00
2019-05-15T00:25:53.304Z,985.02
2019-05-15T00:26:53.185Z,985.00
2019-05-15T00:27:53.216Z,984.97
2019-05-15T00:28:53.022Z,985.00
2019-05-15T00:29:53.023Z,984.99
2019-05-15T00:30:52.863Z,984.93
2019-05-15T00:31:52.832Z,984.96
2019-05-15T00:32:52.697Z,984.96
2019-05-15T00:33:52.641Z,984.92
2019-05-15T00:34:52.539Z,984.89
2019-05-15T00:35:52.554Z,984.86
2019-05-15T00:36:52.377Z,984.83
2019-05-15T00:37:52.360Z,984.83
2019-05-15T00:38:52.206Z,984.85
2019-05-15T00:39:52.172Z,984.86
2019-05-15T00:40:52.047Z,984.85
2019-05-15T00:41:54.745Z,984.83
2019-05-15T00:42:51.883Z,984.85
2019-05-15T00:43:51.889Z,984.81
2019-05-15T00:44:51.724Z,984.83
2019-05-15T00:45:51.704Z,984.80
2019-05-15T00:46:51.561Z,984.80
2019-05-15T00:47:51.504Z,984.76
2019-05-15T00:48:51.391Z,984.73
2019-05-15T00:49:51.420Z,984.76
2019-05-15T00:50:51.231Z,984.77
2019-05-15T00:51:51.235Z,984.74
2019-05-15T00:52:51.067Z,984.70
2019-05-15T00:53:50.995Z,984.68
2019-05-15T00:54:50.915Z,984.65
2019-05-15T00:55:50.950Z,984.66
2019-05-15T00:56:50.747Z,984.63
2019-05-15T00:57:50.675Z,984.66
2019-05-15T00:58:50.586Z,984.61
2019-05-15T00:59:50.569Z,984.57
2019-05-15T01:00:50.418Z,984.60
2019-05-15T01:01:50.347Z,984.58
2019-05-15T01:02:50.257Z,984.56
2019-05-15T01:03:50.290Z,984.58
2019-05-15T01:04:50.096Z,984.53
2019-05-15T01:05:50.098Z,984.55
2019-05-15T01:06:52.651Z,984.57
2019-05-15T01:07:49.906Z,984.54
2019-05-15T01:08:49.772Z,984.52
2019-05-15T01:09:49.712Z,984.56
2019-05-15T01:10:49.605Z,984.55
2019-05-15T01:11:49.624Z,984.51
2019-05-15T01:12:49.440Z,984.50
2019-05-15T01:13:49.436Z,984.49
2019-05-15T01:14:49.281Z,984.52
2019-05-15T01:15:49.241Z,984.50
2019-05-15T01:16:49.181Z,984.48
2019-05-15T01:17:49.319Z,984.45
2019-05-15T01:18:49.246Z,984.46
2019-05-15T01:19:48.965Z,984.45
2019-05-15T01:20:49.365Z,984.44
2019-05-15T01:21:48.771Z,984.40
2019-05-15T01:22:48.674Z,984.40
2019-05-15T01:23:48.621Z,984.41
2019-05-15T01:24:48.666Z,984.43
2019-05-15T01:25:48.496Z,984.39
2019-05-15T01:26:49.266Z,984.38
2019-05-15T01:27:49.032Z,984.35
2019-05-15T01:28:49.420Z,984.32
2019-05-15T01:29:49.293Z,984.34
2019-05-15T01:30:48.597Z,984.35
2019-05-15T01:31:48.699Z,984.30
2019-05-15T01:32:48.543Z,984.30
2019-05-15T01:33:48.160Z,984.29
2019-05-15T01:34:49.063Z,984.28
2019-05-15T01:35:48.718Z,984.27
2019-05-15T01:36:48.874Z,984.26
2019-05-15T01:37:48.281Z,984.27
2019-05-15T01:38:48.055Z,984.26
2019-05-15T01:39:48.533Z,984.26
2019-05-15T01:40:48.460Z,984.30
2019-05-15T01:41:49.345Z,984.25
2019-05-15T01:42:47.003Z,984.27
2019-05-15T01:43:48.921Z,984.26
2019-05-15T01:44:48.417Z,984.26
2019-05-15T01:45:48.315Z,984.26
2019-05-15T01:46:48.262Z,984.24
2019-05-15T01:47:47.986Z,984.25
2019-05-15T01:48:46.504Z,984.23
2019-05-15T01:49:46.433Z,984.24
2019-05-15T01:50:46.338Z,984.24
2019-05-15T01:51:47.972Z,984.25
2019-05-15T01:52:47.923Z,984.23
2019-05-15T01:53:48.044Z,984.26
2019-05-15T01:54:46.016Z,984.21
2019-05-15T01:55:48.253Z,984.21
2019-05-15T01:56:45.854Z,984.20
2019-05-15T01:57:45.851Z,984.18
2019-05-15T01:58:45.687Z,984.19
2019-05-15T01:59:56.580Z,984.14
2019-05-15T02:00:45.521Z,984.13
2019-05-15T02:01:45.463Z,984.12
2019-05-15T02:02:45.366Z,984.09
2019-05-15T02:03:45.383Z,984.12
2019-05-15T02:04:45.197Z,984.09
2019-05-15T02:05:45.185Z,984.13
2019-05-15T02:06:45.032Z,984.10
2019-05-15T02:07:44.994Z,984.10
2019-05-15T02:08:44.869Z,984.14
2019-05-15T02:09:44.904Z,984.10
2019-05-15T02:10:44.709Z,984.08
2019-05-15T02:11:44.717Z,984.08
2019-05-15T02:12:44.549Z,984.07
2019-05-15T02:13:44.529Z,984.03
2019-05-15T02:14:44.378Z,984.04
2019-05-15T02:15:44.334Z,984.02
2019-05-15T02:16:44.216Z,984.01
2019-05-15T02:17:44.246Z,984.03
2019-05-15T02:18:44.054Z,983.99
2019-05-15T02:19:44.054Z,984.01
2019-05-15T02:20:43.885Z,983.99
2019-05-15T02:21:43.864Z,984.00
2019-05-15T02:22:43.732Z,983.98
2019-05-15T02:23:43.670Z,983.99
2019-05-15T02:24:43.559Z,983.97
2019-05-15T02:25:43.583Z,984.00
2019-05-15T02:26:43.397Z,984.00
2019-05-15T02:27:43.393Z,983.95
2019-05-15T02:28:43.234Z,983.96
2019-05-15T02:29:43.203Z,983.95
2019-05-15T02:30:43.063Z,983.96
2019-05-15T02:31:43.011Z,983.91
2019-05-15T02:32:42.911Z,983.95
2019-05-15T02:33:42.921Z,983.93
2019-05-15T02:34:42.740Z,983.93
2019-05-15T02:35:42.736Z,983.92
2019-05-15T02:36:42.576Z,983.92
2019-05-15T02:37:42.540Z,983.92
2019-05-15T02:38:42.422Z,983.92
2019-05-15T02:39:42.452Z,983.90
2019-05-15T02:40:42.249Z,983.89
2019-05-15T02:41:42.266Z,983.88
2019-05-15T02:42:42.082Z,983.86
2019-05-15T02:43:42.070Z,983.86
2019-05-15T02:44:41.921Z,983.88
2019-05-15T02:45:42.742Z,983.86
2019-05-15T02:46:41.753Z,983.85
2019-05-15T02:47:41.794Z,983.90
2019-05-15T02:48:41.589Z,983.86
2019-05-15T02:49:41.605Z,983.86
2019-05-15T02:50:41.427Z,983.83
2019-05-15T02:51:41.409Z,983.82
2019-05-15T02:52:45.167Z,983.77
2019-05-15T02:53:41.236Z,983.75
2019-05-15T02:54:41.109Z,983.79
2019-05-15T02:55:41.133Z,983.78
2019-05-15T02:56:40.933Z,983.79
2019-05-15T02:57:40.935Z,983.80
2019-05-15T02:58:40.772Z,983.79
2019-05-15T02:59:40.750Z,983.80
2019-05-15T03:00:46.954Z,983.79
2019-05-15T03:01:40.808Z,983.81
2019-05-15T03:02:41.597Z,983.78
2019-05-15T03:03:40.471Z,983.79
2019-05-15T03:04:40.364Z,983.79
2019-05-15T03:05:41.152Z,983.80
2019-05-15T03:06:40.113Z,983.79
2019-05-15T03:07:40.792Z,983.80
2019-05-15T03:08:40.351Z,983.79
2019-05-15T03:09:40.158Z,983.79
2019-05-15T03:10:40.820Z,983.78
2019-05-15T03:11:40.820Z,983.75
2019-05-15T03:12:40.892Z,983.76
2019-05-15T03:13:39.655Z,983.77
2019-05-15T03:14:40.062Z,983.72
2019-05-15T03:15:40.520Z,983.72
2019-05-15T03:16:39.655Z,983.73
2019-05-15T03:17:40.715Z,983.72
2019-05-15T03:18:39.881Z,983.69
2019-05-15T03:19:39.511Z,983.70
2019-05-15T03:20:39.324Z,983.70
2019-05-15T03:21:39.070Z,983.71
2019-05-15T03:22:39.978Z,983.70
2019-05-15T03:23:40.557Z,983.71
2019-05-15T03:24:39.616Z,983.66
2019-05-15T03:25:40.468Z,983.69
2019-05-15T03:26:39.466Z,983.71
2019-05-15T03:27:39.475Z,983.73
2019-05-15T03:28:39.505Z,983.69
2019-05-15T03:29:40.304Z,983.71
2019-05-15T03:31:06.504Z,983.72
2019-05-15T03:31:57.838Z,983.69
2019-05-15T03:32:50.505Z,983.73
2019-05-15T03:33:44.891Z,983.73
2019-05-15T03:34:46.241Z,983.72
2019-05-15T03:35:42.726Z,983.71
2019-05-15T03:36:44.436Z,983.72
2019-05-15T03:37:39.772Z,983.72
2019-05-15T03:38:39.350Z,983.71
2019-05-15T03:39:39.229Z,983.69
2019-05-15T03:40:39.615Z,983.71
2019-05-15T03:41:39.310Z,983.68
2019-05-15T03:42:39.335Z,983.69
2019-05-15T03:43:39.399Z,983.69
2019-05-15T03:44:39.289Z,983.67
2019-05-15T03:45:40.253Z,983.68
2019-05-15T03:46:39.562Z,983.72
2019-05-15T03:47:39.728Z,983.67
2019-05-15T03:48:39.790Z,983.71
2019-05-15T03:49:39.436Z,983.74
2019-05-15T03:50:39.716Z,983.73
2019-05-15T03:51:40.102Z,983.78
2019-05-15T03:52:39.250Z,983.75
2019-05-15T03:53:39.534Z,983.73
2019-05-15T03:54:39.106Z,983.74
2019-05-15T03:55:36.118Z,983.77
2019-05-15T03:56:39.045Z,983.75
2019-05-15T03:57:39.589Z,983.74
2019-05-15T03:58:35.828Z,983.76
2019-05-15T03:59:35.836Z,983.74
2019-05-15T04:00:35.667Z,983.74
2019-05-15T04:01:39.723Z,983.75
2019-05-15T04:02:35.504Z,983.79
2019-05-15T04:03:38.810Z,983.76
2019-05-15T04:04:35.337Z,983.77
2019-05-15T04:05:38.636Z,983.76
2019-05-15T04:06:35.168Z,983.73
2019-05-15T04:07:35.179Z,983.71
2019-05-15T04:08:35.016Z,983.71
2019-05-15T04:09:34.993Z,983.74
2019-05-15T04:10:34.844Z,983.72
2019-05-15T04:11:34.797Z,983.71
2019-05-15T04:12:34.678Z,983.70
2019-05-15T04:13:34.724Z,983.71
2019-05-15T04:14:34.510Z,983.69
2019-05-15T04:15:34.523Z,983.69
2019-05-15T04:16:34.345Z,983.63
2019-05-15T04:17:34.332Z,983.67
2019-05-15T04:18:34.178Z,983.68
2019-05-15T04:19:34.134Z,983.67
2019-05-15T04:20:34.014Z,983.66
2019-05-15T04:21:34.044Z,983.65
2019-05-15T04:22:33.848Z,983.66
2019-05-15T04:23:33.859Z,983.66
2019-05-15T04:24:33.683Z,983.64
2019-05-15T04:25:33.663Z,983.67
2019-05-15T04:26:33.516Z,983.66
2019-05-15T04:27:33.475Z,983.66
2019-05-15T04:28:33.354Z,983.68
2019-05-15T04:29:33.383Z,983.66
2019-05-15T04:30:33.192Z,983.65
2019-05-15T04:31:50.347Z,983.68
2019-05-15T04:32:33.022Z,983.65
2019-05-15T04:33:33.002Z,983.68
2019-05-15T04:34:32.860Z,983.68
2019-05-15T04:35:32.817Z,983.66
2019-05-15T04:36:32.692Z,983.70
2019-05-15T04:37:32.725Z,983.67
2019-05-15T04:38:32.529Z,983.68
2019-05-15T04:39:32.546Z,983.66
2019-05-15T04:40:32.362Z,983.67
2019-05-15T04:41:32.344Z,983.67
2019-05-15T04:42:32.205Z,983.66
2019-05-15T04:43:39.731Z,983.64
2019-05-15T04:44:32.034Z,983.66
2019-05-15T04:45:35.244Z,983.65
2019-05-15T04:46:31.866Z,983.65
2019-05-15T04:47:31.872Z,983.64
2019-05-15T04:48:31.714Z,983.63
2019-05-15T04:49:31.681Z,983.66
2019-05-15T04:50:31.541Z,983.59
2019-05-15T04:51:31.497Z,983.58
2019-05-15T04:52:31.374Z,983.63
2019-05-15T04:53:33.191Z,983.63
2019-05-15T04:54:31.224Z,983.64
2019-05-15T04:55:31.208Z,983.65
2019-05-15T04:56:31.043Z,983.61
2019-05-15T04:57:34.081Z,983.62
2019-05-15T04:58:30.894Z,983.66
2019-05-15T04:59:30.822Z,983.67
2019-05-15T05:00:30.715Z,983.65
2019-05-15T05:01:30.745Z,983.65
2019-05-15T05:02:32.087Z,983.68
2019-05-15T05:03:34.158Z,983.69
2019-05-15T05:04:30.392Z,983.72
2019-05-15T05:05:30.353Z,983.70
2019-05-15T05:06:30.223Z,983.67
2019-05-15T05:07:30.164Z,983.66
2019-05-15T05:08:30.060Z,983.70
2019-05-15T05:09:30.075Z,983.68
2019-05-15T05:10:29.893Z,983.66
2019-05-15T05:11:29.893Z,983.66
2019-05-15T05:12:29.729Z,983.65
2019-05-15T05:13:29.803Z,983.69
2019-05-15T05:14:29.569Z,983.65
2019-05-15T05:15:29.503Z,983.60
2019-05-15T05:16:29.637Z,983.63
2019-05-15T05:17:29.421Z,983.64
2019-05-15T05:18:29.905Z,983.57
2019-05-15T05:19:29.261Z,983.61
2019-05-15T05:20:29.073Z,983.56
2019-05-15T05:21:28.994Z,983.65
2019-05-15T05:22:29.039Z,983.63
2019-05-15T05:23:28.821Z,983.62
2019-05-15T05:24:28.846Z,983.66
2019-05-15T05:25:28.661Z,983.64
2019-05-15T05:26:29.445Z,983.67
2019-05-15T05:27:28.850Z,983.70
2019-05-15T05:28:29.041Z,983.68
2019-05-15T05:29:28.337Z,983.65
2019-05-15T05:30:29.282Z,983.69
2019-05-15T05:31:29.597Z,983.69
2019-05-15T05:32:34.527Z,983.63
2019-05-15T05:33:28.611Z,983.67
2019-05-15T05:34:28.438Z,983.66
2019-05-15T05:35:27.974Z,983.72
2019-05-15T05:36:28.027Z,983.71
2019-05-15T05:37:28.005Z,983.69
2019-05-15T05:38:28.195Z,983.75
2019-05-15T05:39:29.425Z,983.72
2019-05-15T05:40:29.326Z,983.72
2019-05-15T05:41:28.107Z,983.69
2019-05-15T05:42:29.109Z,983.68
2019-05-15T05:43:27.192Z,983.69
2019-05-15T05:44:29.133Z,983.74
2019-05-15T05:45:28.811Z,983.72
2019-05-15T05:46:28.031Z,983.75
2019-05-15T05:47:28.790Z,983.67
2019-05-15T05:48:29.116Z,983.69
2019-05-15T05:49:28.688Z,983.67
2019-05-15T05:50:28.788Z,983.68
2019-05-15T05:51:28.159Z,983.67
2019-05-15T05:52:28.025Z,983.69
2019-05-15T05:53:28.525Z,983.68
2019-05-15T05:54:28.650Z,983.70
2019-05-15T05:55:28.277Z,983.69
2019-05-15T05:56:28.298Z,983.67
2019-05-15T05:57:27.942Z,983.67
2019-05-15T05:58:25.968Z,983.66
2019-05-15T05:59:28.260Z,983.68
2019-05-15T06:00:28.447Z,983.68
2019-05-15T06:01:28.133Z,983.67
2019-05-15T06:02:27.891Z,983.68
2019-05-15T06:03:27.907Z,983.70
2019-05-15T06:04:27.776Z,983.68
2019-05-15T06:05:28.006Z,983.67
2019-05-15T06:06:25.333Z,983.71
2019-05-15T06:07:27.802Z,983.68
2019-05-15T06:08:25.259Z,983.70
2019-05-15T06:09:25.073Z,983.65
2019-05-15T06:10:25.170Z,983.68
2019-05-15T06:11:24.908Z,983.64
2019-05-15T06:12:24.982Z,983.64
2019-05-15T06:13:24.746Z,983.68
2019-05-15T06:14:24.788Z,983.64
2019-05-15T06:15:24.587Z,983.64
2019-05-15T06:16:24.601Z,983.66
2019-05-15T06:17:24.424Z,983.66
2019-05-15T06:18:24.343Z,983.66
2019-05-15T06:19:24.413Z,983.63
2019-05-15T06:20:24.177Z,983.62
2019-05-15T06:21:24.119Z,983.65
2019-05-15T06:22:24.017Z,983.62
2019-05-15T06:23:25.919Z,983.59
2019-05-15T06:24:23.851Z,983.66
2019-05-15T06:25:23.846Z,983.64
2019-05-15T06:26:23.694Z,983.64
2019-05-15T06:27:23.658Z,983.63
2019-05-15T06:28:23.532Z,983.63
2019-05-15T06:29:23.451Z,983.62
2019-05-15T06:30:27.446Z,983.65
2019-05-15T06:31:23.290Z,983.63
2019-05-15T06:32:23.208Z,983.66
2019-05-15T06:33:23.183Z,983.63
2019-05-15T06:34:23.043Z,983.63
2019-05-15T06:35:22.967Z,983.64
2019-05-15T06:36:22.887Z,983.66
2019-05-15T06:37:22.901Z,983.67
2019-05-15T06:38:22.722Z,983.64
2019-05-15T06:39:22.717Z,983.66
2019-05-15T06:40:22.563Z,983.64
2019-05-15T06:41:22.480Z,983.63
2019-05-15T06:42:22.421Z,983.69
2019-05-15T06:43:22.335Z,983.68
2019-05-15T06:44:22.335Z,983.68
2019-05-15T06:45:22.159Z,983.63
2019-05-15T06:46:22.144Z,983.64
2019-05-15T06:47:22.000Z,983.67
2019-05-15T06:48:21.916Z,983.64
2019-05-15T06:49:21.859Z,983.66
2019-05-15T06:50:21.758Z,983.70
2019-05-15T06:51:21.776Z,983.68
2019-05-15T06:52:21.601Z,983.74
2019-05-15T06:53:21.575Z,983.71
2019-05-15T06:54:21.434Z,983.71
2019-05-15T06:55:21.388Z,983.70
2019-05-15T06:56:21.270Z,983.72
2019-05-15T06:57:21.297Z,983.73
2019-05-15T06:58:21.112Z,983.75
2019-05-15T06:59:21.029Z,983.74
2019-05-15T07:00:20.947Z,983.72
2019-05-15T07:01:20.917Z,983.74
2019-05-15T07:02:20.790Z,983.73
2019-05-15T07:03:25.781Z,983.71
2019-05-15T07:04:20.635Z,983.73
2019-05-15T07:05:20.643Z,983.72
2019-05-15T07:06:20.468Z,983.72
2019-05-15T07:07:20.447Z,983.69
2019-05-15T07:08:20.324Z,983.70
2019-05-15T07:09:20.253Z,983.75
2019-05-15T07:10:20.200Z,983.74
2019-05-15T07:11:20.170Z,983.75
2019-05-15T07:12:19.991Z,983.77
2019-05-15T07:13:19.985Z,983.77
2019-05-15T07:14:19.823Z,983.78
2019-05-15T07:15:19.747Z,983.75
2019-05-15T07:16:19.692Z,983.76
2019-05-15T07:17:19.586Z,983.71
2019-05-15T07:18:20.147Z,983.78
2019-05-15T07:19:19.424Z,983.77
2019-05-15T07:20:19.413Z,983.72
2019-05-15T07:21:20.602Z,983.75
2019-05-15T07:22:19.220Z,983.77
2019-05-15T07:23:19.284Z,983.77
2019-05-15T07:24:19.136Z,983.77
2019-05-15T07:25:19.052Z,983.78
2019-05-15T07:26:18.965Z,983.78
2019-05-15T07:27:18.784Z,983.77
2019-05-15T07:28:18.706Z,983.73
2019-05-15T07:29:18.980Z,983.71
2019-05-15T07:30:18.805Z,983.74
2019-05-15T07:31:18.566Z,983.73
2019-05-15T07:32:19.259Z,983.75
2019-05-15T07:33:28.120Z,983.75
2019-05-15T07:34:18.824Z,983.74
2019-05-15T07:35:19.133Z,983.71
2019-05-15T07:36:19.221Z,983.69
2019-05-15T07:37:18.997Z,983.72
2019-05-15T07:38:18.333Z,983.72
2019-05-15T07:39:18.063Z,983.69
2019-05-15T07:40:19.349Z,983.70
2019-05-15T07:41:18.461Z,983.67
2019-05-15T07:42:18.526Z,983.68
2019-05-15T07:43:18.140Z,983.68
2019-05-15T07:44:18.887Z,983.68
2019-05-15T07:45:28.126Z,983.66
2019-05-15T07:46:18.427Z,983.67
2019-05-15T07:47:19.097Z,983.65
2019-05-15T07:48:18.687Z,983.68
2019-05-15T07:49:18.256Z,983.69
2019-05-15T07:50:19.529Z,983.65
2019-05-15T07:51:17.979Z,983.64
2019-05-15T07:52:19.186Z,983.65
2019-05-15T07:53:19.254Z,983.61
2019-05-15T07:54:18.248Z,983.60
2019-05-15T07:55:18.466Z,983.58
2019-05-15T07:56:18.155Z,983.60
2019-05-15T07:57:19.244Z,983.61
2019-05-15T07:58:20.247Z,983.60
2019-05-15T07:59:18.530Z,983.59
2019-05-15T08:00:18.550Z,983.63
2019-05-15T08:01:18.378Z,983.59
2019-05-15T08:02:15.988Z,983.64
2019-05-15T08:03:18.355Z,983.60
2019-05-15T08:04:26.304Z,983.60
2019-05-15T08:05:18.087Z,983.62
2019-05-15T08:06:17.838Z,983.61
2019-05-15T08:07:15.595Z,983.59
2019-05-15T08:08:18.206Z,983.62
2019-05-15T08:09:17.857Z,983.60
2019-05-15T08:10:18.123Z,983.58
2019-05-15T08:11:20.632Z,983.58
2019-05-15T08:12:15.200Z,983.61
2019-05-15T08:13:15.273Z,983.59
2019-05-15T08:14:15.042Z,983.56
2019-05-15T08:15:15.185Z,983.58
2019-05-15T08:16:14.882Z,983.57
2019-05-15T08:17:18.323Z,983.57
2019-05-15T08:18:14.727Z,983.62
2019-05-15T08:19:14.799Z,983.64
2019-05-15T08:20:14.566Z,983.58
2019-05-15T08:21:14.712Z,983.60
2019-05-15T08:22:15.185Z,983.62
2019-05-15T08:23:14.524Z,983.58
2019-05-15T08:24:14.259Z,983.58
2019-05-15T08:25:28.257Z,983.65
2019-05-15T08:26:14.092Z,983.63
2019-05-15T08:27:14.247Z,983.67
2019-05-15T08:28:13.940Z,983.62
2019-05-15T08:29:13.950Z,983.66
2019-05-15T08:30:13.779Z,983.60
2019-05-15T08:31:13.732Z,983.59
2019-05-15T08:32:13.628Z,983.57
2019-05-15T08:33:13.688Z,983.59
2019-05-15T08:34:16.309Z,983.59
2019-05-15T08:35:13.474Z,983.58
2019-05-15T08:36:13.304Z,983.53
2019-05-15T08:37:13.287Z,983.56
2019-05-15T08:38:14.356Z,983.56
2019-05-15T08:39:13.105Z,983.58
2019-05-15T08:40:12.998Z,983.58
2019-05-15T08:41:15.524Z,983.55
2019-05-15T08:42:12.847Z,983.54
2019-05-15T08:43:12.760Z,983.58
2019-05-15T08:44:12.721Z,983.57
2019-05-15T08:45:12.608Z,983.59
2019-05-15T08:46:12.630Z,983.56
2019-05-15T08:47:12.457Z,983.55
2019-05-15T08:48:12.440Z,983.54
2019-05-15T08:49:12.286Z,983.55
2019-05-15T08:50:12.249Z,983.52
2019-05-15T08:51:12.133Z,983.43
2019-05-15T08:52:12.061Z,983.45
2019-05-15T08:53:11.980Z,983.44
2019-05-15T08:54:11.972Z,983.42
2019-05-15T08:55:11.816Z,983.42
2019-05-15T08:56:14.681Z,983.45
2019-05-15T08:57:11.670Z,983.39
2019-05-15T08:58:14.072Z,983.37
2019-05-15T08:59:11.510Z,983.36
2019-05-15T09:00:11.439Z,983.40
2019-05-15T09:01:11.403Z,983.41
2019-05-15T09:02:11.274Z,983.37
2019-05-15T09:03:11.314Z,983.35
2019-05-15T09:04:26.141Z,983.41
2019-05-15T09:05:11.041Z,983.38
2019-05-15T09:06:11.040Z,983.33
2019-05-15T09:07:10.912Z,983.27
2019-05-15T09:08:10.948Z,983.32
2019-05-15T09:09:10.746Z,983.28
2019-05-15T09:10:10.749Z,983.27
2019-05-15T09:11:10.579Z,983.28
2019-05-15T09:12:10.495Z,983.26
2019-05-15T09:13:10.422Z,983.23
2019-05-15T09:14:10.369Z,983.26
2019-05-15T09:15:10.265Z,983.26
2019-05-15T09:16:10.198Z,983.22
2019-05-15T09:17:10.117Z,983.22
2019-05-15T09:18:15.921Z,983.22
2019-05-15T09:19:09.956Z,983.23
2019-05-15T09:20:09.907Z,983.17
2019-05-15T09:21:09.800Z,983.20
2019-05-15T09:22:09.809Z,983.22
2019-05-15T09:23:09.649Z,983.16
2019-05-15T09:24:09.653Z,983.16
2019-05-15T09:25:09.492Z,983.20
2019-05-15T09:26:09.534Z,983.17
2019-05-15T09:27:10.249Z,983.14
2019-05-15T09:28:09.347Z,983.14
2019-05-15T09:29:09.511Z,983.11
2019-05-15T09:30:09.152Z,983.13
2019-05-15T09:31:09.030Z,983.23
2019-05-15T09:32:12.388Z,983.16
2019-05-15T09:33:08.916Z,983.14
2019-05-15T09:34:09.240Z,983.17
2019-05-15T09:35:08.720Z,983.11
2019-05-15T09:36:09.215Z,983.20
2019-05-15T09:37:08.689Z,983.15
2019-05-15T09:38:08.779Z,983.13
2019-05-15T09:39:08.780Z,983.18
2019-05-15T09:40:08.988Z,983.08
2019-05-15T09:41:09.166Z,983.11
2019-05-15T09:42:08.520Z,983.09
2019-05-15T09:43:10.897Z,983.11
2019-05-15T09:44:08.118Z,983.05
2019-05-15T09:45:08.952Z,983.09
2019-05-15T09:46:10.313Z,983.09
2019-05-15T09:47:09.144Z,983.04
2019-05-15T09:48:10.126Z,983.05
2019-05-15T09:49:08.821Z,983.02
2019-05-15T09:50:08.500Z,983.04
2019-05-15T09:51:09.192Z,982.97
2019-05-15T09:52:08.997Z,982.97
2019-05-15T09:53:09.296Z,983.01
2019-05-15T09:54:08.111Z,983.04
2019-05-15T09:55:08.546Z,983.13
2019-05-15T09:56:08.097Z,983.06
2019-05-15T09:57:10.661Z,983.03
2019-05-15T09:58:08.262Z,983.04
2019-05-15T09:59:08.909Z,983.06
2019-05-15T10:00:09.014Z,983.03
2019-05-15T10:01:08.462Z,983.10
2019-05-15T10:02:09.075Z,983.08
2019-05-15T10:03:09.366Z,983.06
2019-05-15T10:04:08.331Z,983.05
2019-05-15T10:05:10.986Z,983.03
2019-05-15T10:06:08.160Z,982.98
2019-05-15T10:07:08.203Z,982.99
2019-05-15T10:08:08.480Z,983.02
2019-05-15T10:09:08.873Z,983.01
2019-05-15T10:10:08.516Z,983.02
2019-05-15T10:11:08.871Z,983.01
2019-05-15T10:12:05.875Z,983.01
2019-05-15T10:13:05.863Z,983.00
2019-05-15T10:14:05.725Z,982.91
2019-05-15T10:15:10.477Z,982.92
2019-05-15T10:16:08.214Z,982.91
2019-05-15T10:17:05.592Z,982.90
2019-05-15T10:18:05.426Z,982.85
2019-05-15T10:19:05.393Z,982.84
2019-05-15T10:20:05.265Z,982.86
2019-05-15T10:21:05.187Z,982.86
2019-05-15T10:22:05.226Z,982.86
2019-05-15T10:23:05.032Z,982.89
2019-05-15T10:24:05.015Z,982.86
2019-05-15T10:25:04.888Z,982.81
2019-05-15T10:26:04.937Z,982.80
2019-05-15T10:27:04.728Z,982.83
2019-05-15T10:28:04.736Z,982.79
2019-05-15T10:29:04.574Z,982.84
2019-05-15T10:30:04.651Z,982.79
2019-05-15T10:31:04.421Z,982.78
2019-05-15T10:32:04.458Z,982.82
2019-05-15T10:33:04.293Z,982.76
2019-05-15T10:34:04.266Z,982.77
2019-05-15T10:35:04.122Z,982.77
2019-05-15T10:36:04.180Z,982.68
2019-05-15T10:37:03.965Z,982.62
2019-05-15T10:38:03.986Z,982.63
2019-05-15T10:39:03.839Z,982.59
2019-05-15T10:40:03.810Z,982.61
2019-05-15T10:41:09.399Z,982.63
2019-05-15T10:42:03.580Z,982.66
2019-05-15T10:43:03.510Z,982.65
2019-05-15T10:44:03.444Z,982.59
2019-05-15T10:45:03.419Z,982.58
2019-05-15T10:46:03.279Z,982.57
2019-05-15T10:47:03.338Z,982.58
2019-05-15T10:48:03.126Z,982.59
2019-05-15T10:49:03.142Z,982.60
2019-05-15T10:50:02.971Z,982.60
2019-05-15T10:51:07.259Z,982.59
2019-05-15T10:52:02.822Z,982.59
2019-05-15T10:53:02.860Z,982.54
2019-05-15T10:54:02.676Z,982.57
2019-05-15T10:55:02.673Z,982.57
2019-05-15T10:56:02.875Z,982.60
2019-05-15T10:57:05.274Z,982.62
2019-05-15T10:58:02.364Z,982.61
2019-05-15T10:59:02.399Z,982.56
2019-05-15T11:00:02.221Z,982.59
2019-05-15T11:01:03.372Z,982.54
2019-05-15T11:02:02.059Z,982.56
2019-05-15T11:03:02.031Z,982.46
2019-05-15T11:04:01.906Z,982.43
2019-05-15T11:05:01.935Z,982.45
2019-05-15T11:06:01.757Z,982.45
2019-05-15T11:07:01.838Z,982.40
2019-05-15T11:08:01.603Z,982.44
2019-05-15T11:09:01.529Z,982.46
2019-05-15T11:10:01.552Z,982.46
2019-05-15T11:11:01.373Z,982.45
2019-05-15T11:12:01.465Z,982.45
2019-05-15T11:13:01.221Z,982.40
2019-05-15T11:14:01.271Z,982.40
2019-05-15T11:15:01.081Z,982.39
2019-05-15T11:16:01.081Z,982.37
2019-05-15T11:17:00.920Z,982.37
2019-05-15T11:18:00.997Z,982.35
2019-05-15T11:19:00.770Z,982.34
2019-05-15T11:20:00.798Z,982.32
2019-05-15T11:21:00.617Z,982.33
2019-05-15T11:22:00.718Z,982.29
2019-05-15T11:23:00.470Z,982.33
2019-05-15T11:24:00.522Z,982.30
2019-05-15T11:25:00.319Z,982.34
2019-05-15T11:26:00.333Z,982.23
2019-05-15T11:27:00.217Z,982.22
2019-05-15T11:28:00.254Z,982.18
2019-05-15T11:29:00.014Z,982.19
2019-05-15T11:30:00.052Z,982.20
2019-05-15T11:30:59.865Z,982.22
2019-05-15T11:31:59.977Z,982.13
2019-05-15T11:32:59.718Z,982.19
2019-05-15T11:33:59.768Z,982.15
2019-05-15T11:34:59.566Z,982.14
2019-05-15T11:36:05.581Z,982.13
2019-05-15T11:36:59.529Z,982.12
2019-05-15T11:37:59.491Z,982.06
2019-05-15T11:38:59.261Z,982.14
2019-05-15T11:39:59.298Z,982.14
2019-05-15T11:40:59.104Z,982.08
2019-05-15T11:41:59.034Z,982.14
2019-05-15T11:42:58.962Z,982.13
2019-05-15T11:43:58.920Z,982.13
2019-05-15T11:44:58.830Z,982.14
2019-05-15T11:45:59.018Z,982.09
2019-05-15T11:46:58.851Z,982.05
2019-05-15T11:48:01.025Z,982.03
2019-05-15T11:48:58.858Z,982.04
2019-05-15T11:49:58.670Z,982.02
2019-05-15T11:50:58.352Z,982.02
2019-05-15T11:52:00.640Z,981.92
2019-05-15T11:52:58.635Z,981.99
2019-05-15T11:53:58.764Z,982.01
2019-05-15T11:54:58.947Z,982.05
2019-05-15T11:55:59.854Z,982.05
2019-05-15T11:56:59.625Z,981.98
2019-05-15T11:57:59.373Z,982.05
2019-05-15T11:58:57.751Z,982.00
2019-05-15T11:59:59.653Z,982.01
2019-05-15T12:00:58.025Z,981.94
2019-05-15T12:01:58.015Z,982.00
2019-05-15T12:02:58.409Z,981.98
2019-05-15T12:03:58.539Z,981.98
2019-05-15T12:04:58.381Z,981.89
2019-05-15T12:05:59.649Z,981.94
2019-05-15T12:07:02.117Z,981.95
2019-05-15T12:07:57.925Z,981.90
2019-05-15T12:08:59.166Z,981.94
2019-05-15T12:09:58.100Z,981.88
2019-05-15T12:10:59.114Z,981.83
2019-05-15T12:11:56.970Z,981.87
2019-05-15T12:12:56.696Z,981.83
2019-05-15T12:13:56.774Z,981.85
2019-05-15T12:14:56.544Z,981.90
2019-05-15T12:15:58.757Z,981.93
2019-05-15T12:17:06.954Z,981.95
2019-05-15T12:17:59.007Z,981.90
2019-05-15T12:18:59.065Z,981.96
2019-05-15T12:20:04.692Z,981.96
2019-05-15T12:20:58.789Z,981.94
2019-05-15T12:21:59.582Z,981.92
2019-05-15T12:22:55.944Z,981.95
2019-05-15T12:23:56.019Z,981.91
2019-05-15T12:24:55.792Z,981.91
2019-05-15T12:25:55.716Z,981.87
2019-05-15T12:26:55.638Z,981.83
2019-05-15T12:27:55.749Z,981.84